sensor_id;sensor_type;location;lat;lon;timestamp;temperature;humidity
61392;DHT22;47261;52.892;5.738;2023-05-23T00:01:53;14.00;99.90
61392;DHT22;47261;52.892;5.738;2023-05-23T00:04:19;14.00;99.90
61392;DHT22;47261;52.892;5.738;2023-05-23T00:06:45;14.00;99.90
61392;DHT22;47261;52.892;5.738;2023-05-23T00:09:13;13.90;99.90
61392;DHT22;47261;52.892;5.738;2023-05-23T00:11:39;13.90;99.90
61392;DHT22;47261;52.892;5.738;2023-05-23T00:14:15;13.90;99.90
61392;DHT22;47261;52.892;5.738;2023-05-23T00:16:41;13.90;99.90
61392;DHT22;47261;52.892;5.738;2023-05-23T00:19:11;14.00;99.90
61392;DHT22;47261;52.892;5.738;2023-05-23T00:21:39;13.90;99.90
61392;DHT22;47261;52.892;5.738;2023-05-23T00:24:06;13.90;99.90
61392;DHT22;47261;52.892;5.738;2023-05-23T00:26:31;14.00;99.90
61392;DHT22;47261;52.892;5.738;2023-05-23T00:28:58;14.00;99.90
61392;DHT22;47261;52.892;5.738;2023-05-23T00:31:23;13.90;99.90
61392;DHT22;47261;52.892;5.738;2023-05-23T00:33:49;13.90;99.90
61392;DHT22;47261;52.892;5.738;2023-05-23T00:36:15;14.00;99.90
61392;DHT22;47261;52.892;5.738;2023-05-23T00:38:40;13.90;99.90
61392;DHT22;47261;52.892;5.738;2023-05-23T00:41:06;13.90;99.90
61392;DHT22;47261;52.892;5.738;2023-05-23T00:43:32;13.90;99.90
61392;DHT22;47261;52.892;5.738;2023-05-23T00:45:58;13.90;99.90
61392;DHT22;47261;52.892;5.738;2023-05-23T00:48:24;13.90;99.90
61392;DHT22;47261;52.892;5.738;2023-05-23T00:50:50;13.90;99.90
61392;DHT22;47261;52.892;5.738;2023-05-23T00:53:16;13.90;99.90
61392;DHT22;47261;52.892;5.738;2023-05-23T00:55:43;13.90;99.90
61392;DHT22;47261;52.892;5.738;2023-05-23T00:58:09;13.90;99.90
61392;DHT22;47261;52.892;5.738;2023-05-23T01:00:35;14.00;99.90
61392;DHT22;47261;52.892;5.738;2023-05-23T01:03:03;14.00;99.90
61392;DHT22;47261;52.892;5.738;2023-05-23T01:05:29;14.00;99.90
61392;DHT22;47261;52.892;5.738;2023-05-23T01:07:55;14.00;99.90
61392;DHT22;47261;52.892;5.738;2023-05-23T01:10:26;13.90;99.90
61392;DHT22;47261;52.892;5.738;2023-05-23T01:18:26;14.00;99.90
61392;DHT22;47261;52.892;5.738;2023-05-23T01:20:57;14.00;99.90
61392;DHT22;47261;52.892;5.738;2023-05-23T01:28:44;13.90;99.90
61392;DHT22;47261;52.892;5.738;2023-05-23T01:31:10;13.90;99.90
61392;DHT22;47261;52.892;5.738;2023-05-23T01:33:37;13.80;99.90
61392;DHT22;47261;52.892;5.738;2023-05-23T01:36:04;13.80;99.90
61392;DHT22;47261;52.892;5.738;2023-05-23T01:38:30;13.80;99.90
61392;DHT22;47261;52.892;5.738;2023-05-23T01:40:56;13.70;99.90
61392;DHT22;47261;52.892;5.738;2023-05-23T01:43:23;13.70;99.90
61392;DHT22;47261;52.892;5.738;2023-05-23T01:45:51;13.70;99.90
61392;DHT22;47261;52.892;5.738;2023-05-23T01:48:18;13.70;99.90
61392;DHT22;47261;52.892;5.738;2023-05-23T01:50:44;13.70;99.90
61392;DHT22;47261;52.892;5.738;2023-05-23T01:53:21;13.70;99.90
61392;DHT22;47261;52.892;5.738;2023-05-23T01:55:47;13.70;99.90
61392;DHT22;47261;52.892;5.738;2023-05-23T01:58:13;13.70;99.90
61392;DHT22;47261;52.892;5.738;2023-05-23T02:00:39;13.70;99.90
61392;DHT22;47261;52.892;5.738;2023-05-23T02:03:04;13.70;99.90
61392;DHT22;47261;52.892;5.738;2023-05-23T02:05:30;13.70;99.90
61392;DHT22;47261;52.892;5.738;2023-05-23T02:07:56;13.70;99.90
61392;DHT22;47261;52.892;5.738;2023-05-23T02:10:22;13.70;99.90
61392;DHT22;47261;52.892;5.738;2023-05-23T02:12:47;13.60;99.90
61392;DHT22;47261;52.892;5.738;2023-05-23T02:15:13;13.70;99.90
61392;DHT22;47261;52.892;5.738;2023-05-23T02:17:39;13.60;99.90
61392;DHT22;47261;52.892;5.738;2023-05-23T02:20:06;13.60;99.90
61392;DHT22;47261;52.892;5.738;2023-05-23T02:22:32;13.60;99.90
61392;DHT22;47261;52.892;5.738;2023-05-23T02:24:58;13.60;99.90
61392;DHT22;47261;52.892;5.738;2023-05-23T02:27:23;13.50;99.90
61392;DHT22;47261;52.892;5.738;2023-05-23T02:29:49;13.50;99.90
61392;DHT22;47261;52.892;5.738;2023-05-23T02:32:14;13.50;99.90
61392;DHT22;47261;52.892;5.738;2023-05-23T02:34:40;13.50;99.90
61392;DHT22;47261;52.892;5.738;2023-05-23T02:37:06;13.50;99.90
61392;DHT22;47261;52.892;5.738;2023-05-23T02:39:34;13.40;99.90
61392;DHT22;47261;52.892;5.738;2023-05-23T02:42:00;13.40;99.90
61392;DHT22;47261;52.892;5.738;2023-05-23T02:44:26;13.30;99.90
61392;DHT22;47261;52.892;5.738;2023-05-23T02:46:52;13.30;99.90
61392;DHT22;47261;52.892;5.738;2023-05-23T02:49:17;13.30;99.90
61392;DHT22;47261;52.892;5.738;2023-05-23T02:51:43;13.30;99.90
61392;DHT22;47261;52.892;5.738;2023-05-23T02:54:08;13.20;99.90
61392;DHT22;47261;52.892;5.738;2023-05-23T02:56:34;13.20;99.90
61392;DHT22;47261;52.892;5.738;2023-05-23T02:59:00;13.20;99.90
61392;DHT22;47261;52.892;5.738;2023-05-23T03:01:25;13.20;99.90
61392;DHT22;47261;52.892;5.738;2023-05-23T03:03:51;13.20;99.90
61392;DHT22;47261;52.892;5.738;2023-05-23T03:06:17;13.10;99.90
61392;DHT22;47261;52.892;5.738;2023-05-23T03:08:43;13.10;99.90
61392;DHT22;47261;52.892;5.738;2023-05-23T03:11:09;13.10;99.90
61392;DHT22;47261;52.892;5.738;2023-05-23T03:13:34;13.10;99.90
61392;DHT22;47261;52.892;5.738;2023-05-23T03:16:00;13.20;99.90
61392;DHT22;47261;52.892;5.738;2023-05-23T03:18:26;13.10;99.90
61392;DHT22;47261;52.892;5.738;2023-05-23T03:20:52;13.10;99.90
61392;DHT22;47261;52.892;5.738;2023-05-23T03:23:17;13.10;99.90
61392;DHT22;47261;52.892;5.738;2023-05-23T03:25:43;13.10;99.90
61392;DHT22;47261;52.892;5.738;2023-05-23T03:28:09;13.10;99.90
61392;DHT22;47261;52.892;5.738;2023-05-23T03:30:36;13.10;99.90
61392;DHT22;47261;52.892;5.738;2023-05-23T03:33:02;13.10;99.90
61392;DHT22;47261;52.892;5.738;2023-05-23T03:35:28;13.10;99.90
61392;DHT22;47261;52.892;5.738;2023-05-23T03:37:54;13.10;99.90
61392;DHT22;47261;52.892;5.738;2023-05-23T03:40:20;13.10;99.90
61392;DHT22;47261;52.892;5.738;2023-05-23T03:42:47;13.10;99.90
61392;DHT22;47261;52.892;5.738;2023-05-23T03:45:14;13.10;99.90
61392;DHT22;47261;52.892;5.738;2023-05-23T03:47:39;13.10;99.90
61392;DHT22;47261;52.892;5.738;2023-05-23T03:50:05;13.00;99.90
61392;DHT22;47261;52.892;5.738;2023-05-23T03:52:31;13.00;99.90
61392;DHT22;47261;52.892;5.738;2023-05-23T03:54:57;13.00;99.90
61392;DHT22;47261;52.892;5.738;2023-05-23T03:57:22;12.90;99.90
61392;DHT22;47261;52.892;5.738;2023-05-23T03:59:48;12.90;99.90
61392;DHT22;47261;52.892;5.738;2023-05-23T04:02:14;12.90;99.90
61392;DHT22;47261;52.892;5.738;2023-05-23T04:04:39;12.80;99.90
61392;DHT22;47261;52.892;5.738;2023-05-23T04:07:05;12.80;99.90
61392;DHT22;47261;52.892;5.738;2023-05-23T04:09:31;12.80;99.90
61392;DHT22;47261;52.892;5.738;2023-05-23T04:11:57;12.80;99.90
61392;DHT22;47261;52.892;5.738;2023-05-23T04:14:22;12.80;99.90
61392;DHT22;47261;52.892;5.738;2023-05-23T04:16:48;12.70;99.90
61392;DHT22;47261;52.892;5.738;2023-05-23T04:19:14;12.70;99.90
61392;DHT22;47261;52.892;5.738;2023-05-23T04:21:40;12.70;99.90
61392;DHT22;47261;52.892;5.738;2023-05-23T04:24:06;12.60;99.90
61392;DHT22;47261;52.892;5.738;2023-05-23T04:26:32;12.60;99.90
61392;DHT22;47261;52.892;5.738;2023-05-23T04:29:01;12.60;99.90
61392;DHT22;47261;52.892;5.738;2023-05-23T04:31:26;12.60;99.90
61392;DHT22;47261;52.892;5.738;2023-05-23T04:33:52;12.60;99.90
61392;DHT22;47261;52.892;5.738;2023-05-23T04:36:18;12.50;99.90
61392;DHT22;47261;52.892;5.738;2023-05-23T04:38:43;12.50;99.90
61392;DHT22;47261;52.892;5.738;2023-05-23T04:41:09;12.50;99.90
61392;DHT22;47261;52.892;5.738;2023-05-23T04:43:35;12.50;99.90
61392;DHT22;47261;52.892;5.738;2023-05-23T04:46:09;12.50;99.90
61392;DHT22;47261;52.892;5.738;2023-05-23T04:48:36;12.50;99.90
61392;DHT22;47261;52.892;5.738;2023-05-23T04:51:03;12.50;99.90
61392;DHT22;47261;52.892;5.738;2023-05-23T04:53:33;12.50;99.90
61392;DHT22;47261;52.892;5.738;2023-05-23T04:55:59;12.40;99.90
61392;DHT22;47261;52.892;5.738;2023-05-23T04:58:25;12.40;99.90
61392;DHT22;47261;52.892;5.738;2023-05-23T05:00:50;12.40;99.90
61392;DHT22;47261;52.892;5.738;2023-05-23T05:03:16;12.30;99.90
61392;DHT22;47261;52.892;5.738;2023-05-23T05:05:42;12.30;99.90
61392;DHT22;47261;52.892;5.738;2023-05-23T05:08:07;12.30;99.90
61392;DHT22;47261;52.892;5.738;2023-05-23T05:10:33;12.30;99.90
61392;DHT22;47261;52.892;5.738;2023-05-23T05:12:58;12.30;99.90
61392;DHT22;47261;52.892;5.738;2023-05-23T05:15:24;12.30;99.90
61392;DHT22;47261;52.892;5.738;2023-05-23T05:17:50;12.30;99.90
61392;DHT22;47261;52.892;5.738;2023-05-23T05:20:16;12.30;99.90
61392;DHT22;47261;52.892;5.738;2023-05-23T05:22:41;12.30;99.90
61392;DHT22;47261;52.892;5.738;2023-05-23T05:25:09;12.30;99.90
61392;DHT22;47261;52.892;5.738;2023-05-23T05:27:35;12.30;99.90
61392;DHT22;47261;52.892;5.738;2023-05-23T05:30:07;12.30;99.90
61392;DHT22;47261;52.892;5.738;2023-05-23T05:32:33;12.40;99.90
61392;DHT22;47261;52.892;5.738;2023-05-23T05:35:00;12.40;99.90
61392;DHT22;47261;52.892;5.738;2023-05-23T05:37:25;12.40;99.90
61392;DHT22;47261;52.892;5.738;2023-05-23T05:39:51;12.40;99.90
61392;DHT22;47261;52.892;5.738;2023-05-23T05:42:19;12.30;99.90
61392;DHT22;47261;52.892;5.738;2023-05-23T05:44:45;12.30;99.90
61392;DHT22;47261;52.892;5.738;2023-05-23T05:47:10;12.30;99.90
61392;DHT22;47261;52.892;5.738;2023-05-23T05:49:37;12.30;99.90
61392;DHT22;47261;52.892;5.738;2023-05-23T05:52:03;12.30;99.90
61392;DHT22;47261;52.892;5.738;2023-05-23T05:54:29;12.20;99.90
61392;DHT22;47261;52.892;5.738;2023-05-23T05:56:55;12.20;99.90
61392;DHT22;47261;52.892;5.738;2023-05-23T05:59:20;12.20;99.90
61392;DHT22;47261;52.892;5.738;2023-05-23T06:01:46;12.20;99.90
61392;DHT22;47261;52.892;5.738;2023-05-23T06:04:11;12.20;99.90
61392;DHT22;47261;52.892;5.738;2023-05-23T06:06:38;12.20;99.90
61392;DHT22;47261;52.892;5.738;2023-05-23T06:09:03;12.20;99.90
61392;DHT22;47261;52.892;5.738;2023-05-23T06:11:29;12.20;99.90
61392;DHT22;47261;52.892;5.738;2023-05-23T06:13:55;12.20;99.90
61392;DHT22;47261;52.892;5.738;2023-05-23T06:16:20;12.30;99.90
61392;DHT22;47261;52.892;5.738;2023-05-23T06:18:46;12.40;99.90
61392;DHT22;47261;52.892;5.738;2023-05-23T06:21:12;12.60;99.90
61392;DHT22;47261;52.892;5.738;2023-05-23T06:23:37;12.80;99.80
61392;DHT22;47261;52.892;5.738;2023-05-23T06:26:03;12.80;98.70
61392;DHT22;47261;52.892;5.738;2023-05-23T06:28:32;12.90;98.30
61392;DHT22;47261;52.892;5.738;2023-05-23T06:30:58;12.90;98.30
61392;DHT22;47261;52.892;5.738;2023-05-23T06:33:23;13.00;98.10
61392;DHT22;47261;52.892;5.738;2023-05-23T06:35:49;13.20;97.20
61392;DHT22;47261;52.892;5.738;2023-05-23T06:38:14;13.50;97.00
61392;DHT22;47261;52.892;5.738;2023-05-23T06:40:40;13.80;95.90
61392;DHT22;47261;52.892;5.738;2023-05-23T06:43:05;13.90;95.80
61392;DHT22;47261;52.892;5.738;2023-05-23T06:45:31;14.00;95.00
61392;DHT22;47261;52.892;5.738;2023-05-23T06:47:59;14.00;95.40
61392;DHT22;47261;52.892;5.738;2023-05-23T06:50:25;14.00;95.20
61392;DHT22;47261;52.892;5.738;2023-05-23T06:52:51;13.90;94.50
61392;DHT22;47261;52.892;5.738;2023-05-23T06:55:16;13.80;94.90
61392;DHT22;47261;52.892;5.738;2023-05-23T06:57:43;13.80;95.00
61392;DHT22;47261;52.892;5.738;2023-05-23T07:00:10;13.90;94.70
61392;DHT22;47261;52.892;5.738;2023-05-23T07:02:38;13.80;94.50
61392;DHT22;47261;52.892;5.738;2023-05-23T07:05:04;13.70;94.70
61392;DHT22;47261;52.892;5.738;2023-05-23T07:07:29;13.60;94.60
61392;DHT22;47261;52.892;5.738;2023-05-23T07:09:55;13.50;94.30
61392;DHT22;47261;52.892;5.738;2023-05-23T07:12:20;13.30;94.80
61392;DHT22;47261;52.892;5.738;2023-05-23T07:14:46;13.30;95.20
61392;DHT22;47261;52.892;5.738;2023-05-23T07:17:12;13.30;95.30
61392;DHT22;47261;52.892;5.738;2023-05-23T07:19:37;13.40;94.90
61392;DHT22;47261;52.892;5.738;2023-05-23T07:22:03;13.60;95.50
61392;DHT22;47261;52.892;5.738;2023-05-23T07:24:28;13.70;95.60
61392;DHT22;47261;52.892;5.738;2023-05-23T07:26:54;13.80;94.70
61392;DHT22;47261;52.892;5.738;2023-05-23T07:29:20;13.70;94.70
61392;DHT22;47261;52.892;5.738;2023-05-23T07:31:45;13.70;94.80
61392;DHT22;47261;52.892;5.738;2023-05-23T07:34:11;13.70;94.50
61392;DHT22;47261;52.892;5.738;2023-05-23T07:36:37;13.60;94.50
61392;DHT22;47261;52.892;5.738;2023-05-23T07:39:05;13.70;94.90
61392;DHT22;47261;52.892;5.738;2023-05-23T07:41:31;13.70;94.80
61392;DHT22;47261;52.892;5.738;2023-05-23T07:43:57;13.80;94.40
61392;DHT22;47261;52.892;5.738;2023-05-23T07:46:22;13.70;94.30
61392;DHT22;47261;52.892;5.738;2023-05-23T07:48:48;13.60;93.90
61392;DHT22;47261;52.892;5.738;2023-05-23T07:51:13;13.50;94.30
61392;DHT22;47261;52.892;5.738;2023-05-23T07:53:40;13.50;94.20
61392;DHT22;47261;52.892;5.738;2023-05-23T07:56:06;13.50;94.40
61392;DHT22;47261;52.892;5.738;2023-05-23T07:58:31;13.50;94.20
61392;DHT22;47261;52.892;5.738;2023-05-23T08:00:57;13.50;93.60
61392;DHT22;47261;52.892;5.738;2023-05-23T08:03:23;13.50;93.70
61392;DHT22;47261;52.892;5.738;2023-05-23T08:05:49;13.70;94.50
61392;DHT22;47261;52.892;5.738;2023-05-23T08:08:15;14.00;94.30
61392;DHT22;47261;52.892;5.738;2023-05-23T08:10:41;14.20;92.90
61392;DHT22;47261;52.892;5.738;2023-05-23T08:13:08;14.10;92.50
61392;DHT22;47261;52.892;5.738;2023-05-23T08:15:34;14.00;92.80
61392;DHT22;47261;52.892;5.738;2023-05-23T08:18:00;14.00;94.20
61392;DHT22;47261;52.892;5.738;2023-05-23T08:20:26;14.20;92.60
61392;DHT22;47261;52.892;5.738;2023-05-23T08:23:01;14.20;91.80
61392;DHT22;47261;52.892;5.738;2023-05-23T08:25:28;14.30;91.50
61392;DHT22;47261;52.892;5.738;2023-05-23T08:27:58;14.40;92.00
61392;DHT22;47261;52.892;5.738;2023-05-23T08:30:24;14.50;91.90
61392;DHT22;47261;52.892;5.738;2023-05-23T08:32:51;14.70;91.10
61392;DHT22;47261;52.892;5.738;2023-05-23T08:35:17;14.80;90.80
61392;DHT22;47261;52.892;5.738;2023-05-23T08:37:43;14.80;90.20
61392;DHT22;47261;52.892;5.738;2023-05-23T08:40:18;14.80;89.90
61392;DHT22;47261;52.892;5.738;2023-05-23T08:42:48;14.80;90.00
61392;DHT22;47261;52.892;5.738;2023-05-23T08:45:15;14.80;90.50
61392;DHT22;47261;52.892;5.738;2023-05-23T08:47:45;15.00;90.80
61392;DHT22;47261;52.892;5.738;2023-05-23T08:50:15;15.20;90.60
61392;DHT22;47261;52.892;5.738;2023-05-23T08:52:56;15.40;90.80
61392;DHT22;47261;52.892;5.738;2023-05-23T08:55:27;15.50;90.10
61392;DHT22;47261;52.892;5.738;2023-05-23T08:57:53;15.40;90.40
61392;DHT22;47261;52.892;5.738;2023-05-23T09:00:20;15.50;90.20
61392;DHT22;47261;52.892;5.738;2023-05-23T09:02:47;15.40;90.00
61392;DHT22;47261;52.892;5.738;2023-05-23T09:05:13;15.50;90.40
61392;DHT22;47261;52.892;5.738;2023-05-23T09:07:40;15.60;90.50
61392;DHT22;47261;52.892;5.738;2023-05-23T09:10:08;15.70;88.50
61392;DHT22;47261;52.892;5.738;2023-05-23T09:12:35;15.60;87.60
61392;DHT22;47261;52.892;5.738;2023-05-23T09:15:05;15.40;88.70
61392;DHT22;47261;52.892;5.738;2023-05-23T09:17:34;15.40;90.30
61392;DHT22;47261;52.892;5.738;2023-05-23T09:20:05;15.60;90.40
61392;DHT22;47261;52.892;5.738;2023-05-23T09:22:34;15.60;88.10
61392;DHT22;47261;52.892;5.738;2023-05-23T09:25:01;15.50;88.40
61392;DHT22;47261;52.892;5.738;2023-05-23T09:27:26;15.40;89.50
61392;DHT22;47261;52.892;5.738;2023-05-23T09:29:52;15.50;89.10
61392;DHT22;47261;52.892;5.738;2023-05-23T09:32:19;15.60;89.20
61392;DHT22;47261;52.892;5.738;2023-05-23T09:35:03;15.50;88.70
61392;DHT22;47261;52.892;5.738;2023-05-23T09:37:29;15.40;88.60
61392;DHT22;47261;52.892;5.738;2023-05-23T09:40:06;15.30;89.70
61392;DHT22;47261;52.892;5.738;2023-05-23T09:42:35;15.20;88.40
61392;DHT22;47261;52.892;5.738;2023-05-23T09:45:01;15.10;88.30
61392;DHT22;47261;52.892;5.738;2023-05-23T09:47:27;15.10;88.40
61392;DHT22;47261;52.892;5.738;2023-05-23T09:49:53;15.10;90.00
61392;DHT22;47261;52.892;5.738;2023-05-23T09:52:19;15.30;88.00
61392;DHT22;47261;52.892;5.738;2023-05-23T09:54:48;15.50;87.60
61392;DHT22;47261;52.892;5.738;2023-05-23T09:57:14;15.80;87.40
61392;DHT22;47261;52.892;5.738;2023-05-23T09:59:52;16.00;85.60
61392;DHT22;47261;52.892;5.738;2023-05-23T10:05:29;15.90;83.90
61392;DHT22;47261;52.892;5.738;2023-05-23T10:08:00;15.80;85.40
61392;DHT22;47261;52.892;5.738;2023-05-23T10:10:29;15.70;85.60
61392;DHT22;47261;52.892;5.738;2023-05-23T10:12:57;15.70;85.90
61392;DHT22;47261;52.892;5.738;2023-05-23T10:15:26;15.80;87.20
61392;DHT22;47261;52.892;5.738;2023-05-23T10:18:20;15.80;85.80
61392;DHT22;47261;52.892;5.738;2023-05-23T10:20:51;15.90;85.80
61392;DHT22;47261;52.892;5.738;2023-05-23T10:23:18;15.80;86.30
61392;DHT22;47261;52.892;5.738;2023-05-23T10:25:45;15.60;85.20
61392;DHT22;47261;52.892;5.738;2023-05-23T10:28:12;15.50;86.20
61392;DHT22;47261;52.892;5.738;2023-05-23T10:30:38;15.50;88.50
61392;DHT22;47261;52.892;5.738;2023-05-23T10:33:05;15.60;87.50
61392;DHT22;47261;52.892;5.738;2023-05-23T10:38:33;15.80;86.90
61392;DHT22;47261;52.892;5.738;2023-05-23T10:41:11;15.90;83.80
61392;DHT22;47261;52.892;5.738;2023-05-23T10:44:02;16.10;85.90
61392;DHT22;47261;52.892;5.738;2023-05-23T10:49:19;16.30;80.80
61392;DHT22;47261;52.892;5.738;2023-05-23T10:51:48;16.20;80.80
61392;DHT22;47261;52.892;5.738;2023-05-23T10:54:17;16.40;82.30
61392;DHT22;47261;52.892;5.738;2023-05-23T10:56:44;16.50;81.20
61392;DHT22;47261;52.892;5.738;2023-05-23T10:59:19;16.40;80.00
61392;DHT22;47261;52.892;5.738;2023-05-23T11:01:45;16.30;81.10
61392;DHT22;47261;52.892;5.738;2023-05-23T11:04:11;16.30;81.20
61392;DHT22;47261;52.892;5.738;2023-05-23T11:06:37;16.10;80.80
61392;DHT22;47261;52.892;5.738;2023-05-23T11:09:14;16.10;81.60
61392;DHT22;47261;52.892;5.738;2023-05-23T11:14:16;16.40;80.20
61392;DHT22;47261;52.892;5.738;2023-05-23T11:16:43;16.30;78.10
61392;DHT22;47261;52.892;5.738;2023-05-23T11:21:50;16.20;81.00
61392;DHT22;47261;52.892;5.738;2023-05-23T11:24:17;16.00;79.90
61392;DHT22;47261;52.892;5.738;2023-05-23T11:26:57;15.90;78.90
61392;DHT22;47261;52.892;5.738;2023-05-23T11:29:28;15.90;79.60
61392;DHT22;47261;52.892;5.738;2023-05-23T11:31:57;15.80;80.50
61392;DHT22;47261;52.892;5.738;2023-05-23T11:34:25;15.70;82.40
61392;DHT22;47261;52.892;5.738;2023-05-23T11:36:55;15.80;82.00
61392;DHT22;47261;52.892;5.738;2023-05-23T11:39:21;15.90;81.60
61392;DHT22;47261;52.892;5.738;2023-05-23T11:42:05;16.00;80.90
61392;DHT22;47261;52.892;5.738;2023-05-23T11:44:31;15.90;82.70
61392;DHT22;47261;52.892;5.738;2023-05-23T11:47:04;15.90;83.40
61392;DHT22;47261;52.892;5.738;2023-05-23T11:49:33;15.90;83.00
61392;DHT22;47261;52.892;5.738;2023-05-23T11:52:01;15.80;84.10
61392;DHT22;47261;52.892;5.738;2023-05-23T11:54:27;15.80;83.00
61392;DHT22;47261;52.892;5.738;2023-05-23T11:56:56;15.80;84.80
61392;DHT22;47261;52.892;5.738;2023-05-23T11:59:24;16.10;85.90
61392;DHT22;47261;52.892;5.738;2023-05-23T12:01:52;16.30;83.50
61392;DHT22;47261;52.892;5.738;2023-05-23T12:04:17;16.60;82.60
61392;DHT22;47261;52.892;5.738;2023-05-23T12:06:47;16.70;80.50
61392;DHT22;47261;52.892;5.738;2023-05-23T12:09:13;16.90;81.30
61392;DHT22;47261;52.892;5.738;2023-05-23T12:11:39;17.10;79.40
61392;DHT22;47261;52.892;5.738;2023-05-23T12:14:06;16.90;75.10
61392;DHT22;47261;52.892;5.738;2023-05-23T12:16:32;16.70;76.80
61392;DHT22;47261;52.892;5.738;2023-05-23T12:19:02;16.60;76.90
61392;DHT22;47261;52.892;5.738;2023-05-23T12:21:45;16.50;78.80
61392;DHT22;47261;52.892;5.738;2023-05-23T12:24:13;16.20;79.30
61392;DHT22;47261;52.892;5.738;2023-05-23T12:26:57;16.10;80.80
61392;DHT22;47261;52.892;5.738;2023-05-23T12:29:31;16.30;80.00
61392;DHT22;47261;52.892;5.738;2023-05-23T12:31:59;16.50;78.30
61392;DHT22;47261;52.892;5.738;2023-05-23T12:34:25;16.50;77.60
61392;DHT22;47261;52.892;5.738;2023-05-23T12:37:01;16.60;79.10
61392;DHT22;47261;52.892;5.738;2023-05-23T12:39:29;16.60;78.30
61392;DHT22;47261;52.892;5.738;2023-05-23T12:42:06;16.70;78.70
61392;DHT22;47261;52.892;5.738;2023-05-23T12:44:32;16.60;78.30
61392;DHT22;47261;52.892;5.738;2023-05-23T12:46:58;16.60;74.90
61392;DHT22;47261;52.892;5.738;2023-05-23T12:49:23;16.30;73.50
61392;DHT22;47261;52.892;5.738;2023-05-23T12:51:49;16.20;77.10
61392;DHT22;47261;52.892;5.738;2023-05-23T12:54:15;16.30;77.50
61392;DHT22;47261;52.892;5.738;2023-05-23T12:56:40;16.40;76.10
61392;DHT22;47261;52.892;5.738;2023-05-23T12:59:06;16.50;76.60
61392;DHT22;47261;52.892;5.738;2023-05-23T13:01:33;16.70;79.00
61392;DHT22;47261;52.892;5.738;2023-05-23T13:04:00;16.80;78.80
61392;DHT22;47261;52.892;5.738;2023-05-23T13:06:26;16.80;76.70
61392;DHT22;47261;52.892;5.738;2023-05-23T13:08:52;16.60;77.20
61392;DHT22;47261;52.892;5.738;2023-05-23T13:11:22;16.50;77.70
61392;DHT22;47261;52.892;5.738;2023-05-23T13:13:49;16.50;79.30
61392;DHT22;47261;52.892;5.738;2023-05-23T13:16:15;16.60;79.70
61392;DHT22;47261;52.892;5.738;2023-05-23T13:18:41;16.70;76.70
61392;DHT22;47261;52.892;5.738;2023-05-23T13:21:06;16.80;73.70
61392;DHT22;47261;52.892;5.738;2023-05-23T13:23:33;16.80;74.40
61392;DHT22;47261;52.892;5.738;2023-05-23T13:25:58;16.80;73.80
61392;DHT22;47261;52.892;5.738;2023-05-23T13:28:24;16.60;72.80
61392;DHT22;47261;52.892;5.738;2023-05-23T13:30:50;16.40;74.00
61392;DHT22;47261;52.892;5.738;2023-05-23T13:33:15;16.30;75.10
61392;DHT22;47261;52.892;5.738;2023-05-23T13:35:41;16.40;77.00
61392;DHT22;47261;52.892;5.738;2023-05-23T13:38:07;16.50;76.10
61392;DHT22;47261;52.892;5.738;2023-05-23T13:40:33;16.50;76.40
61392;DHT22;47261;52.892;5.738;2023-05-23T13:42:58;16.60;74.80
61392;DHT22;47261;52.892;5.738;2023-05-23T13:45:24;16.70;72.60
61392;DHT22;47261;52.892;5.738;2023-05-23T13:47:50;16.70;70.90
61392;DHT22;47261;52.892;5.738;2023-05-23T13:50:16;16.40;70.60
61392;DHT22;47261;52.892;5.738;2023-05-23T13:52:41;16.20;68.70
61392;DHT22;47261;52.892;5.738;2023-05-23T13:55:08;16.20;73.40
61392;DHT22;47261;52.892;5.738;2023-05-23T13:57:33;16.50;76.40
61392;DHT22;47261;52.892;5.738;2023-05-23T13:59:59;16.70;76.20
61392;DHT22;47261;52.892;5.738;2023-05-23T14:02:25;16.80;73.30
61392;DHT22;47261;52.892;5.738;2023-05-23T14:04:51;16.80;75.00
61392;DHT22;47261;52.892;5.738;2023-05-23T14:07:17;16.90;73.80
61392;DHT22;47261;52.892;5.738;2023-05-23T14:09:43;16.90;69.50
61392;DHT22;47261;52.892;5.738;2023-05-23T14:12:09;16.80;69.40
61392;DHT22;47261;52.892;5.738;2023-05-23T14:14:35;16.50;69.90
61392;DHT22;47261;52.892;5.738;2023-05-23T14:17:01;16.20;73.10
61392;DHT22;47261;52.892;5.738;2023-05-23T14:19:27;16.30;74.90
61392;DHT22;47261;52.892;5.738;2023-05-23T14:21:53;16.30;75.10
61392;DHT22;47261;52.892;5.738;2023-05-23T14:24:19;16.30;72.10
61392;DHT22;47261;52.892;5.738;2023-05-23T14:26:46;16.20;71.20
61392;DHT22;47261;52.892;5.738;2023-05-23T14:29:12;16.20;73.20
61392;DHT22;47261;52.892;5.738;2023-05-23T14:31:37;16.20;73.40
61392;DHT22;47261;52.892;5.738;2023-05-23T14:34:09;16.10;72.00
61392;DHT22;47261;52.892;5.738;2023-05-23T14:36:35;15.90;70.20
61392;DHT22;47261;52.892;5.738;2023-05-23T14:39:01;15.80;72.00
61392;DHT22;47261;52.892;5.738;2023-05-23T14:41:28;15.70;72.80
61392;DHT22;47261;52.892;5.738;2023-05-23T14:43:55;15.70;75.20
61392;DHT22;47261;52.892;5.738;2023-05-23T14:46:21;15.80;73.70
61392;DHT22;47261;52.892;5.738;2023-05-23T14:48:47;15.80;73.10
61392;DHT22;47261;52.892;5.738;2023-05-23T14:51:12;15.80;70.40
61392;DHT22;47261;52.892;5.738;2023-05-23T14:53:38;15.90;72.10
61392;DHT22;47261;52.892;5.738;2023-05-23T14:56:04;16.10;72.00
61392;DHT22;47261;52.892;5.738;2023-05-23T14:58:30;16.20;72.30
61392;DHT22;47261;52.892;5.738;2023-05-23T15:00:55;16.30;72.20
61392;DHT22;47261;52.892;5.738;2023-05-23T15:03:22;16.40;72.40
61392;DHT22;47261;52.892;5.738;2023-05-23T15:05:48;16.40;72.10
61392;DHT22;47261;52.892;5.738;2023-05-23T15:08:14;16.40;72.40
61392;DHT22;47261;52.892;5.738;2023-05-23T15:10:40;16.30;71.40
61392;DHT22;47261;52.892;5.738;2023-05-23T15:13:09;16.30;72.20
61392;DHT22;47261;52.892;5.738;2023-05-23T15:15:34;16.20;70.60
61392;DHT22;47261;52.892;5.738;2023-05-23T15:18:05;16.00;71.10
61392;DHT22;47261;52.892;5.738;2023-05-23T15:20:34;16.00;73.00
61392;DHT22;47261;52.892;5.738;2023-05-23T15:23:02;16.00;74.20
61392;DHT22;47261;52.892;5.738;2023-05-23T15:25:27;16.00;72.60
61392;DHT22;47261;52.892;5.738;2023-05-23T15:27:53;16.00;71.40
61392;DHT22;47261;52.892;5.738;2023-05-23T15:30:19;15.90;71.30
61392;DHT22;47261;52.892;5.738;2023-05-23T15:32:44;15.80;72.30
61392;DHT22;47261;52.892;5.738;2023-05-23T15:35:10;15.60;71.00
61392;DHT22;47261;52.892;5.738;2023-05-23T15:37:36;15.30;71.30
61392;DHT22;47261;52.892;5.738;2023-05-23T15:40:02;15.00;72.10
61392;DHT22;47261;52.892;5.738;2023-05-23T15:42:28;14.80;73.40
61392;DHT22;47261;52.892;5.738;2023-05-23T15:44:54;14.80;76.30
61392;DHT22;47261;52.892;5.738;2023-05-23T15:47:19;15.00;76.60
61392;DHT22;47261;52.892;5.738;2023-05-23T15:49:45;15.20;75.70
61392;DHT22;47261;52.892;5.738;2023-05-23T15:52:11;15.30;76.60
61392;DHT22;47261;52.892;5.738;2023-05-23T15:54:37;15.40;74.90